Time;durP1;ratioP1;P1;durP2;ratioP2;P2;SDS_P1;SDS_P2;PMS_P1;PMS_P2;Temp;Humidity;BMP_temperature;BMP_pressure;BME280_temperature;BME280_humidity;BME280_pressure;Samples;Min_cycle;Max_cycle;Signal;HPM_P1;HPM_P2
2022/02/16 00:01:29;;;;;;;5.27;2.50;;;5.70;99.90;;;6.26;100.00;-19939.81;5113182;28;20226;-56
2022/02/16 00:03:57;;;;;;;3.40;2.20;;;5.60;99.90;;;6.56;100.00;-19950.09;5114252;28;20276;-57
2022/02/16 00:06:25;;;;;;;2.70;2.40;;;5.60;99.90;;;6.33;100.00;-19942.22;5113106;28;20229;-57
2022/02/16 00:08:53;;;;;;;4.03;2.57;;;5.60;99.90;;;6.42;100.00;-19945.47;5113490;28;20237;-54
2022/02/16 00:11:21;;;;;;;3.43;2.80;;;5.60;99.90;;;6.49;100.00;-19947.69;5112951;28;20229;-56
2022/02/16 00:13:49;;;;;;;3.47;2.50;;;5.60;99.90;;;6.44;100.00;-19946.16;5113532;28;20306;-55
2022/02/16 00:16:17;;;;;;;3.73;2.93;;;5.60;99.90;;;6.39;100.00;-19944.28;5113326;28;20289;-55
2022/02/16 00:18:46;;;;;;;3.77;2.53;;;5.60;99.90;;;6.43;100.00;-19945.81;5112978;28;20230;-56
2022/02/16 00:21:15;;;;;;;3.93;2.47;;;5.60;99.90;;;6.47;100.00;-19947.00;5113014;28;20226;-54
2022/02/16 00:23:43;;;;;;;3.60;2.40;;;5.60;99.90;;;6.56;100.00;-19950.09;5113145;28;20242;-55
2022/02/16 00:26:11;;;;;;;4.70;2.37;;;5.70;99.90;;;6.63;100.00;-19952.63;5113164;28;20259;-54
2022/02/16 00:28:39;;;;;;;5.00;3.53;;;5.70;99.90;;;6.59;100.00;-19951.09;5112810;28;20304;-55
2022/02/16 00:31:07;;;;;;;2.60;2.40;;;5.70;99.90;;;6.59;100.00;-19951.09;5113326;28;20291;-55
2022/02/16 00:33:35;;;;;;;5.33;3.20;;;5.80;99.90;;;6.60;100.00;-19951.63;5113283;28;20671;-57
2022/02/16 00:36:06;;;;;;;3.33;2.50;;;5.80;99.90;;;6.71;100.00;-19955.22;5112764;28;20706;-55
2022/02/16 00:38:34;;;;;;;3.77;2.47;;;5.80;99.90;;;6.76;100.00;-19956.91;5112404;28;20781;-53
2022/02/16 00:41:02;;;;;;;4.60;2.40;;;5.80;99.90;;;6.71;100.00;-19955.22;5112606;28;20244;-55
2022/02/16 00:43:30;;;;;;;3.73;2.80;;;5.90;99.90;;;6.73;100.00;-19956.06;5112526;28;20723;-57
2022/02/16 00:45:58;;;;;;;3.10;2.10;;;5.90;99.90;;;6.94;100.00;-19963.25;5113361;28;20240;-56
2022/02/16 00:48:26;;;;;;;3.80;2.30;;;6.00;99.90;;;6.65;100.00;-19953.16;5112495;28;20303;-55
2022/02/16 00:50:54;;;;;;;3.30;2.20;;;5.90;99.90;;;6.80;100.00;-19958.44;5112609;28;20241;-54
2022/02/16 00:53:23;;;;;;;4.83;2.50;;;5.90;99.90;;;6.91;100.00;-19962.22;5112478;28;20250;-53
2022/02/16 00:55:52;;;;;;;6.93;2.60;;;6.00;99.90;;;6.90;100.00;-19961.88;5112705;28;20306;-51
2022/02/16 00:58:20;;;;;;;3.00;2.70;;;6.00;99.90;;;6.88;100.00;-19961.00;5111963;28;20648;-54
2022/02/16 01:00:48;;;;;;;3.23;2.40;;;6.00;99.90;;;6.73;100.00;-19955.88;5113179;28;20306;-54
2022/02/16 01:03:16;;;;;;;5.10;2.70;;;6.00;99.90;;;6.74;100.00;-19956.22;5111973;28;20253;-53
2022/02/16 01:05:45;;;;;;;4.87;2.60;;;6.00;99.90;;;6.78;100.00;-19957.75;5112222;28;20322;-53
2022/02/16 01:08:14;;;;;;;3.53;2.73;;;6.00;99.90;;;6.99;100.00;-19964.78;5112074;28;20838;-53
2022/02/16 01:10:44;;;;;;;8.43;3.10;;;6.00;99.90;;;6.97;100.00;-19964.09;5112117;28;20290;-56
2022/02/16 01:13:12;;;;;;;3.70;2.70;;;6.10;99.90;;;7.13;100.00;-19969.72;5111950;28;20288;-54
2022/02/16 01:15:40;;;;;;;3.13;2.77;;;6.10;99.90;;;6.96;100.00;-19963.91;5112936;28;20229;-57
2022/02/16 01:18:08;;;;;;;6.53;3.00;;;6.10;99.90;;;6.98;100.00;-19964.44;5111807;28;20731;-54
2022/02/16 01:20:36;;;;;;;4.40;2.87;;;6.10;99.90;;;6.96;100.00;-19963.91;5112156;28;20225;-56
2022/02/16 01:23:04;;;;;;;4.13;2.90;;;6.10;99.90;;;7.17;100.00;-19970.94;5111819;28;20235;-55
2022/02/16 01:25:32;;;;;;;5.67;2.90;;;6.20;99.90;;;7.22;100.00;-19972.63;5112035;28;20280;-53
2022/02/16 01:28:01;;;;;;;4.97;3.47;;;6.20;99.90;;;7.02;100.00;-19965.97;5111963;28;20237;-55
2022/02/16 01:30:29;;;;;;;5.43;3.30;;;6.20;99.90;;;7.14;100.00;-19970.06;5112209;28;20240;-55
2022/02/16 01:33:00;;;;;;;7.07;3.23;;;6.20;99.90;;;7.16;100.00;-19970.59;5112045;28;20234;-54
2022/02/16 01:35:28;;;;;;;3.20;2.63;;;6.20;99.90;;;7.25;100.00;-19973.84;5111737;28;20213;-56
2022/02/16 01:37:56;;;;;;;4.83;2.70;;;6.30;99.90;;;6.98;100.00;-19964.44;5111614;28;20317;-55
2022/02/16 01:40:24;;;;;;;5.00;3.10;;;6.20;99.90;;;6.83;100.00;-19959.47;5111913;28;20417;-55
2022/02/16 01:42:52;;;;;;;3.80;3.17;;;6.10;99.90;;;7.10;100.00;-19968.53;5112053;28;20251;-52
2022/02/16 01:45:26;;;;;;;4.33;3.00;;;6.20;99.90;;;7.11;100.00;-19968.88;5111435;28;20226;-55
2022/02/16 01:47:56;;;;;;;3.77;2.83;;;6.20;99.90;;;7.05;100.00;-19967.00;5111382;28;20229;-56
2022/02/16 01:50:25;;;;;;;4.90;3.10;;;6.30;99.90;;;7.06;100.00;-19967.16;5111597;28;20316;-53
2022/02/16 01:52:54;;;;;;;4.43;3.33;;;6.20;99.90;;;7.06;100.00;-19967.34;5111431;28;20226;-57
2022/02/16 01:55:22;;;;;;;3.90;3.20;;;6.20;99.90;;;7.02;100.00;-19965.78;5111417;28;20276;-57
2022/02/16 01:57:51;;;;;;;3.60;3.30;;;6.20;99.90;;;7.06;100.00;-19967.34;5111431;28;20569;-55
2022/02/16 02:00:19;;;;;;;4.50;3.30;;;6.20;99.90;;;6.94;100.00;-19963.25;5112002;28;20236;-56
2022/02/16 02:02:48;;;;;;;3.53;2.70;;;6.20;99.90;;;7.18;100.00;-19971.44;5111548;28;20730;-54
2022/02/16 02:05:16;;;;;;;4.53;3.30;;;6.30;99.90;;;6.98;100.00;-19964.44;5111034;28;20272;-53
2022/02/16 02:07:45;;;;;;;5.40;2.83;;;6.20;99.90;;;7.08;100.00;-19967.84;5111370;28;20305;-55
2022/02/16 02:10:13;;;;;;;4.10;2.97;;;6.20;99.90;;;6.98;100.00;-19964.59;5110928;28;20214;-55
2022/02/16 02:12:45;;;;;;;3.80;3.37;;;6.20;99.90;;;7.14;100.00;-19970.06;5111540;28;20210;-57
2022/02/16 02:15:14;;;;;;;2.87;2.60;;;6.20;99.90;;;6.95;100.00;-19963.41;5110620;28;20420;-56
2022/02/16 02:17:42;;;;;;;3.83;3.03;;;6.20;99.90;;;7.08;100.00;-19968.03;5111290;28;20227;-54
2022/02/16 02:20:22;;;;;;;4.40;2.87;;;6.20;99.90;;;7.18;100.00;-19971.28;5111137;28;20314;-56
2022/02/16 02:22:51;;;;;;;5.97;3.30;;;6.30;99.90;;;7.13;100.00;-19969.72;5111392;28;20323;-57
2022/02/16 02:25:20;;;;;;;3.30;2.87;;;6.20;99.90;;;6.95;100.00;-19963.56;5111042;28;20325;-56
2022/02/16 02:27:49;;;;;;;4.17;3.07;;;6.20;99.90;;;7.05;100.00;-19967.00;5111377;28;20242;-53
2022/02/16 02:30:17;;;;;;;3.03;2.73;;;6.20;99.90;;;7.09;100.00;-19968.38;5110525;28;20232;-54
2022/02/16 02:32:48;;;;;;;3.97;3.10;;;6.20;99.90;;;7.31;100.00;-19975.88;5110553;28;20722;-57
2022/02/16 02:35:16;;;;;;;3.07;2.70;;;6.30;99.90;;;7.17;100.00;-19970.94;5110808;28;20266;-55
2022/02/16 02:37:45;;;;;;;2.83;2.63;;;6.30;99.90;;;7.14;100.00;-19969.91;5111086;28;20306;-58
2022/02/16 02:40:13;;;;;;;4.00;2.83;;;6.30;99.90;;;7.23;100.00;-19973.16;5110887;28;20249;-54
2022/02/16 02:42:43;;;;;;;3.27;2.87;;;6.30;99.90;;;7.28;100.00;-19974.84;5112203;28;20670;-55
2022/02/16 02:45:13;;;;;;;4.13;3.53;;;6.30;99.90;;;7.16;100.00;-19970.75;5113668;28;20226;-57
2022/02/16 02:47:42;;;;;;;3.67;2.80;;;6.30;99.90;;;7.14;100.00;-19969.91;5114165;28;20222;-55
2022/02/16 02:50:11;;;;;;;4.13;2.80;;;6.30;99.90;;;7.21;100.00;-19972.47;5114047;28;20250;-55
2022/02/16 02:52:39;;;;;;;3.10;2.73;;;6.30;99.90;;;7.04;100.00;-19966.66;5115056;28;20225;-57
2022/02/16 02:55:11;;;;;;;4.47;2.90;;;6.20;99.90;;;7.09;100.00;-19968.19;5114749;28;20232;-57
2022/02/16 02:57:40;;;;;;;3.53;2.70;;;6.30;99.90;;;7.11;100.00;-19968.88;5115475;28;20186;-55
2022/02/16 03:00:11;;;;;;;4.83;2.80;;;6.20;99.90;;;7.23;100.00;-19973.16;5114365;28;20226;-55
2022/02/16 03:02:40;;;;;;;2.53;2.33;;;6.30;99.90;;;7.21;100.00;-19972.28;5114717;28;20258;-55
2022/02/16 03:05:09;;;;;;;2.53;2.30;;;6.30;99.90;;;7.21;100.00;-19972.47;5114231;28;20977;-55
2022/02/16 03:07:37;;;;;;;4.30;2.73;;;6.30;99.90;;;7.06;100.00;-19967.34;5114567;28;20651;-56
2022/02/16 03:10:08;;;;;;;5.73;3.30;;;6.30;99.90;;;7.10;100.00;-19968.53;5114285;28;20206;-57
2022/02/16 03:12:36;;;;;;;2.90;2.60;;;6.30;99.90;;;6.93;100.00;-19962.91;5114764;28;20615;-54
2022/02/16 03:15:06;;;;;;;2.60;2.40;;;6.20;99.90;;;7.22;100.00;-19972.63;5114281;28;20262;-57
2022/02/16 03:17:34;;;;;;;3.00;2.33;;;6.20;99.90;;;7.18;100.00;-19971.44;5114750;28;20314;-57
2022/02/16 03:20:04;;;;;;;2.60;2.40;;;6.20;99.90;;;7.09;100.00;-19968.19;5114171;28;20672;-56
2022/02/16 03:22:32;;;;;;;2.77;2.50;;;6.20;99.90;;;7.21;100.00;-19972.28;5114419;28;20229;-56
2022/02/16 03:25:01;;;;;;;4.93;2.43;;;6.20;99.90;;;7.06;100.00;-19967.16;5115046;28;20195;-58
2022/02/16 03:27:30;;;;;;;3.50;2.30;;;6.30;99.90;;;7.03;100.00;-19966.16;5114336;28;20264;-55
2022/02/16 03:29:59;;;;;;;4.47;2.33;;;6.20;99.90;;;7.07;100.00;-19967.69;5113948;28;20261;-58
2022/02/16 03:32:27;;;;;;;2.50;2.10;;;6.20;99.90;;;7.07;100.00;-19967.69;5114129;28;20231;-56
2022/02/16 03:34:57;;;;;;;3.13;2.13;;;6.20;99.90;;;7.03;100.00;-19966.16;5114127;28;20230;-56
2022/02/16 03:37:25;;;;;;;3.93;2.50;;;6.20;99.90;;;7.19;100.00;-19971.78;5114356;28;20248;-57
2022/02/16 03:39:54;;;;;;;2.50;2.23;;;6.30;99.90;;;6.97;100.00;-19964.25;5114728;28;20208;-56
2022/02/16 03:42:22;;;;;;;2.77;2.57;;;6.20;99.90;;;7.06;100.00;-19967.34;5113928;28;20630;-53
2022/02/16 03:44:51;;;;;;;5.10;2.60;;;6.20;99.90;;;7.12;100.00;-19969.22;5113877;28;20223;-55
2022/02/16 03:47:19;;;;;;;2.30;2.10;;;6.20;99.90;;;7.05;100.00;-19966.81;5114056;28;20265;-58
2022/02/16 03:49:47;;;;;;;3.03;2.30;;;6.20;99.90;;;7.07;100.00;-19967.50;5114020;28;20229;-55
2022/02/16 03:52:15;;;;;;;2.40;2.07;;;6.20;99.90;;;7.02;100.00;-19965.97;5114208;28;20216;-57
2022/02/16 03:54:43;;;;;;;2.37;2.10;;;6.20;99.90;;;6.99;100.00;-19964.78;5114334;28;20282;-57
2022/02/16 03:57:11;;;;;;;2.47;2.00;;;6.20;99.90;;;7.12;100.00;-19969.22;5113668;28;20223;-55
2022/02/16 03:59:39;;;;;;;2.50;2.23;;;6.20;99.90;;;7.21;100.00;-19972.28;5113555;28;20280;-57
2022/02/16 04:02:08;;;;;;;2.30;2.10;;;6.30;99.90;;;7.16;100.00;-19970.75;5113662;28;20244;-57
2022/02/16 04:04:36;;;;;;;2.37;1.90;;;6.30;99.90;;;7.05;100.00;-19967.00;5113541;28;20695;-56
2022/02/16 04:07:05;;;;;;;3.53;2.07;;;6.30;99.90;;;7.03;100.00;-19966.31;5113266;28;20218;-54
2022/02/16 04:09:33;;;;;;;2.10;1.90;;;6.20;99.90;;;7.07;100.00;-19967.50;5114158;28;20253;-54
2022/02/16 04:12:02;;;;;;;2.13;1.80;;;6.20;99.90;;;6.96;100.00;-19963.75;5113318;28;20283;-54
2022/02/16 04:14:30;;;;;;;2.10;1.70;;;6.20;99.90;;;6.89;100.00;-19961.53;5113388;28;20250;-56
2022/02/16 04:16:58;;;;;;;3.33;1.70;;;6.20;99.90;;;7.00;100.00;-19965.28;5113433;28;20261;-56
2022/02/16 04:19:27;;;;;;;2.17;1.73;;;6.20;99.90;;;7.11;100.00;-19969.03;5113169;28;20240;-54
2022/02/16 04:21:55;;;;;;;2.03;1.60;;;6.30;99.90;;;7.07;100.00;-19967.50;5113985;28;20216;-56
2022/02/16 04:24:23;;;;;;;1.67;1.57;;;6.30;99.90;;;7.04;100.00;-19966.47;5112936;28;20242;-56
2022/02/16 04:26:51;;;;;;;2.77;1.70;;;6.20;99.90;;;7.07;100.00;-19967.50;5113041;28;20227;-58
2022/02/16 04:29:19;;;;;;;1.60;1.40;;;6.20;99.90;;;6.92;100.00;-19962.56;5112875;28;20250;-57
2022/02/16 04:31:47;;;;;;;3.10;1.40;;;6.20;99.90;;;7.02;100.00;-19965.78;5113136;28;20221;-54
2022/02/16 04:34:16;;;;;;;2.37;1.67;;;6.20;99.90;;;7.11;100.00;-19969.03;5113244;28;20234;-55
2022/02/16 04:36:45;;;;;;;1.77;1.50;;;6.30;99.90;;;7.02;100.00;-19965.97;5113556;28;20206;-57
2022/02/16 04:39:15;;;;;;;2.33;1.80;;;6.20;99.90;;;7.05;100.00;-19966.81;5112999;28;20226;-55
2022/02/16 04:41:43;;;;;;;2.67;1.70;;;6.20;99.90;;;6.98;100.00;-19964.59;5112692;28;20752;-55
2022/02/16 04:44:12;;;;;;;1.30;1.20;;;6.20;99.90;;;7.00;100.00;-19965.28;5112600;28;20246;-57
2022/02/16 04:46:40;;;;;;;2.00;1.27;;;6.20;99.90;;;7.16;100.00;-19970.59;5112381;28;20231;-56
2022/02/16 04:49:08;;;;;;;2.73;1.57;;;6.20;99.90;;;7.13;100.00;-19969.72;5112643;28;20297;-56
2022/02/16 04:51:36;;;;;;;2.03;1.20;;;6.30;99.90;;;7.05;100.00;-19967.00;5113281;28;20219;-56
2022/02/16 04:54:05;;;;;;;1.40;1.30;;;6.20;99.90;;;7.07;100.00;-19967.69;5112598;28;20683;-55
2022/02/16 04:56:34;;;;;;;1.40;1.30;;;6.20;99.90;;;7.09;100.00;-19968.38;5112218;28;20310;-57
2022/02/16 04:59:02;;;;;;;1.33;1.20;;;6.20;99.90;;;7.02;100.00;-19965.97;5112541;28;20236;-57
2022/02/16 05:01:30;;;;;;;1.73;1.10;;;6.20;99.90;;;7.00;100.00;-19965.28;5112511;28;20304;-55
2022/02/16 05:03:58;;;;;;;1.40;1.27;;;6.20;99.90;;;7.07;100.00;-19967.50;5113117;28;20293;-54
2022/02/16 05:06:26;;;;;;;1.20;1.10;;;6.20;99.90;;;7.01;100.00;-19965.47;5111537;28;20329;-54
2022/02/16 05:08:54;;;;;;;1.63;1.20;;;6.20;99.90;;;6.98;100.00;-19964.44;5112831;28;20254;-56
2022/02/16 05:11:23;;;;;;;1.67;1.20;;;6.20;99.90;;;7.09;100.00;-19968.19;5111974;28;20234;-56
2022/02/16 05:13:52;;;;;;;1.50;1.40;;;6.20;99.90;;;7.01;100.00;-19965.63;5112289;28;20221;-57
2022/02/16 05:16:21;;;;;;;1.30;1.07;;;6.20;99.90;;;7.02;100.00;-19965.78;5112115;28;20301;-55
2022/02/16 05:18:49;;;;;;;1.27;1.10;;;6.20;99.90;;;6.98;100.00;-19964.59;5113181;28;20293;-56
2022/02/16 05:21:17;;;;;;;1.23;1.00;;;6.20;99.90;;;7.05;100.00;-19966.81;5111610;28;20255;-57
2022/02/16 05:23:45;;;;;;;1.60;1.00;;;6.10;99.90;;;7.02;100.00;-19965.97;5112181;28;20231;-55
2022/02/16 05:26:13;;;;;;;1.43;0.90;;;6.10;99.90;;;6.97;100.00;-19964.09;5111754;28;20734;-56
2022/02/16 05:28:42;;;;;;;1.37;1.00;;;6.20;99.90;;;7.13;100.00;-19969.56;5111826;28;20238;-55
2022/02/16 05:31:10;;;;;;;1.67;0.90;;;6.20;99.90;;;7.01;100.00;-19965.63;5111759;28;20238;-54
2022/02/16 05:33:39;;;;;;;0.97;0.90;;;6.20;99.90;;;7.03;100.00;-19966.31;5112268;28;20224;-56
2022/02/16 05:36:07;;;;;;;0.90;0.90;;;6.20;99.90;;;7.11;100.00;-19968.88;5111692;28;20249;-55
2022/02/16 05:38:35;;;;;;;1.10;1.00;;;6.20;99.90;;;7.02;100.00;-19965.97;5111507;28;20310;-56
2022/02/16 05:41:03;;;;;;;0.90;0.90;;;6.20;99.90;;;6.80;100.00;-19958.28;5111895;28;20232;-56
2022/02/16 05:43:31;;;;;;;1.00;0.90;;;6.10;99.90;;;6.75;100.00;-19956.56;5111117;28;20717;-56
2022/02/16 05:46:00;;;;;;;1.40;0.90;;;6.00;99.90;;;6.90;100.00;-19961.88;5112590;28;20323;-55
2022/02/16 05:48:29;;;;;;;1.10;1.00;;;6.10;99.90;;;6.73;100.00;-19956.06;5111877;28;20652;-54
2022/02/16 05:50:58;;;;;;;2.43;1.40;;;6.00;99.90;;;6.81;100.00;-19958.63;5111577;28;20250;-57
2022/02/16 05:53:26;;;;;;;0.77;0.77;;;6.00;99.90;;;6.92;100.00;-19962.56;5111262;28;20313;-56
2022/02/16 05:55:59;;;;;;;1.33;0.90;;;6.10;99.90;;;6.85;100.00;-19960.00;5111462;28;20606;-56
2022/02/16 05:58:27;;;;;;;0.80;0.80;;;6.10;99.90;;;6.77;100.00;-19957.44;5111027;28;20220;-55
2022/02/16 06:00:55;;;;;;;0.80;0.80;;;6.00;99.90;;;6.79;100.00;-19957.94;5111833;28;20301;-57
2022/02/16 06:03:24;;;;;;;1.00;0.93;;;6.00;99.90;;;6.66;100.00;-19953.66;5111232;28;20745;-56
2022/02/16 06:05:52;;;;;;;1.10;0.80;;;6.00;99.90;;;6.79;100.00;-19958.13;5111227;28;20259;-56
2022/02/16 06:08:21;;;;;;;0.80;0.80;;;6.00;99.90;;;6.77;100.00;-19957.25;5111153;28;20235;-56
2022/02/16 06:10:49;;;;;;;0.80;0.80;;;6.00;99.90;;;6.72;100.00;-19955.72;5111187;28;20562;-55
2022/02/16 06:13:19;;;;;;;0.90;0.90;;;5.90;99.90;;;6.68;100.00;-19954.19;5110892;28;20726;-57
2022/02/16 06:15:47;;;;;;;1.70;0.70;;;6.00;99.90;;;6.59;100.00;-19951.09;5111560;28;20220;-56
2022/02/16 06:18:15;;;;;;;1.17;1.07;;;5.90;99.90;;;6.43;100.00;-19945.81;5110032;28;20300;-57
2022/02/16 06:20:44;;;;;;;3.03;1.10;;;5.90;99.90;;;6.60;100.00;-19951.63;5111518;28;20307;-55
2022/02/16 06:23:12;;;;;;;1.10;0.90;;;5.80;99.90;;;6.64;100.00;-19952.81;5110933;28;20309;-55
2022/02/16 06:25:40;;;;;;;1.50;1.33;;;5.80;99.90;;;6.54;100.00;-19949.56;5111254;28;20299;-54
2022/02/16 06:28:08;;;;;;;0.83;0.83;;;5.80;99.90;;;6.49;100.00;-19947.84;5110555;28;20232;-56
2022/02/16 06:30:36;;;;;;;1.03;0.97;;;5.80;99.90;;;6.50;100.00;-19948.19;5111266;28;20246;-55
2022/02/16 06:33:04;;;;;;;0.90;0.90;;;5.80;99.90;;;6.30;100.00;-19941.38;5110715;28;20430;-54
2022/02/16 06:35:34;;;;;;;1.17;0.80;;;5.70;99.90;;;6.48;100.00;-19947.50;5110696;28;20252;-53
2022/02/16 06:38:06;;;;;;;1.67;0.77;;;5.70;99.90;;;6.54;100.00;-19949.56;5110433;28;20259;-57
2022/02/16 06:40:34;;;;;;;2.00;0.93;;;5.80;99.90;;;6.49;100.00;-19947.69;5110312;28;20222;-57
2022/02/16 06:43:02;;;;;;;0.97;0.80;;;5.80;99.90;;;6.35;100.00;-19943.06;5110508;28;20676;-55
2022/02/16 06:45:31;;;;;;;0.93;0.80;;;5.80;99.90;;;6.37;100.00;-19943.75;5110927;28;20681;-55
2022/02/16 06:47:59;;;;;;;1.00;0.77;;;5.80;99.90;;;6.47;100.00;-19947.00;5110550;28;20234;-51
2022/02/16 06:50:27;;;;;;;0.93;0.93;;;5.70;99.90;;;6.40;100.00;-19944.59;5110923;28;20250;-54
2022/02/16 06:52:55;;;;;;;0.80;0.77;;;5.70;99.90;;;6.45;100.00;-19946.50;5110804;28;20230;-54
2022/02/16 06:55:24;;;;;;;1.27;0.80;;;5.80;99.90;;;6.42;100.00;-19945.28;5110962;28;20226;-56
2022/02/16 06:57:52;;;;;;;0.80;0.80;;;5.80;99.90;;;6.49;100.00;-19947.84;5110780;28;20289;-55
2022/02/16 07:00:20;;;;;;;1.07;0.90;;;5.80;99.90;;;6.53;100.00;-19949.22;5110343;28;20729;-56
2022/02/16 07:02:49;;;;;;;0.80;0.80;;;5.90;99.90;;;6.49;100.00;-19947.84;5110235;28;20246;-56
2022/02/16 07:05:18;;;;;;;1.03;0.93;;;5.90;99.90;;;6.54;100.00;-19949.41;5110462;28;20226;-58
2022/02/16 07:07:47;;;;;;;1.23;0.93;;;5.90;99.90;;;6.33;100.00;-19942.38;5110523;28;20255;-57
2022/02/16 07:10:15;;;;;;;1.83;0.80;;;5.80;99.90;;;6.38;100.00;-19944.09;5110231;28;20229;-55
2022/02/16 07:12:45;;;;;;;0.80;0.80;;;5.80;99.90;;;6.55;100.00;-19949.72;5110887;28;20232;-57
2022/02/16 07:15:13;;;;;;;1.13;0.87;;;5.80;99.90;;;6.52;100.00;-19948.88;5110249;28;20249;-54
2022/02/16 07:17:42;;;;;;;1.03;0.90;;;5.90;99.90;;;6.60;100.00;-19951.63;5110376;28;20249;-55
2022/02/16 07:20:13;;;;;;;0.80;0.80;;;5.90;99.90;;;6.69;100.00;-19954.53;5110161;28;20230;-57
2022/02/16 07:22:43;;;;;;;1.60;1.00;;;5.90;99.90;;;6.56;100.00;-19950.25;5110658;28;20304;-54
2022/02/16 07:25:12;;;;;;;0.90;0.90;;;5.90;99.90;;;6.53;100.00;-19949.06;5110280;28;20198;-56
2022/02/16 07:28:02;;;;;;;1.60;0.90;;;5.90;99.90;;;6.56;100.00;-19950.25;5111190;28;20222;-54
2022/02/16 07:30:31;;;;;;;0.97;0.87;;;5.90;99.90;;;6.50;100.00;-19948.19;5114399;28;20277;-58
2022/02/16 07:32:59;;;;;;;1.00;1.00;;;5.90;99.90;;;6.57;100.00;-19950.59;5113923;28;20261;-57
2022/02/16 07:35:27;;;;;;;0.80;0.80;;;5.90;99.90;;;6.54;100.00;-19949.56;5113761;28;20222;-57
2022/02/16 07:37:57;;;;;;;0.90;0.80;;;5.90;99.90;;;6.56;100.00;-19950.09;5113546;28;20263;-55
2022/02/16 07:40:28;;;;;;;0.90;0.80;;;5.90;99.90;;;6.65;100.00;-19953.31;5113681;28;20232;-58
2022/02/16 07:42:56;;;;;;;0.80;0.80;;;5.90;99.90;;;6.68;100.00;-19954.19;5114274;28;20211;-58
2022/02/16 07:45:26;;;;;;;0.70;0.70;;;5.90;99.90;;;6.67;100.00;-19954.00;5112666;28;20226;-59
2022/02/16 07:47:54;;;;;;;0.70;0.70;;;6.00;99.90;;;6.76;100.00;-19957.09;5113958;28;20675;-56
2022/02/16 07:50:22;;;;;;;0.70;0.70;;;6.10;99.90;;;6.77;100.00;-19957.25;5112763;28;20691;-60
2022/02/16 07:52:50;;;;;;;0.83;0.80;;;6.10;99.90;;;6.72;100.00;-19955.53;5113350;28;20330;-61
2022/02/16 07:55:19;;;;;;;1.90;0.80;;;6.10;99.90;;;6.91;100.00;-19962.22;5113462;28;20586;-61
2022/02/16 07:57:47;;;;;;;1.10;0.90;;;6.20;99.90;;;6.94;100.00;-19963.25;5113571;28;20305;-62
2022/02/16 08:00:16;;;;;;;0.83;0.83;;;6.20;99.90;;;6.97;100.00;-19964.09;5112719;28;20256;-61
2022/02/16 08:02:45;;;;;;;0.87;0.80;;;6.30;99.90;;;7.09;100.00;-19968.19;5113008;28;20232;-60
2022/02/16 08:05:13;;;;;;;1.13;0.90;;;6.30;99.90;;;7.13;100.00;-19969.72;5112881;28;20312;-57
2022/02/16 08:07:41;;;;;;;1.10;1.00;;;6.40;99.90;;;7.12;100.00;-19969.22;5113017;28;20582;-60
2022/02/16 08:10:10;;;;;;;2.10;0.80;;;6.40;99.90;;;7.20;100.00;-19971.94;5112511;28;20297;-60
2022/02/16 08:12:45;;;;;;;1.00;0.80;;;6.40;99.90;;;7.30;100.00;-19975.38;5113507;28;20253;-60
2022/02/16 08:15:14;;;;;;;0.87;0.80;;;6.50;99.90;;;7.09;100.00;-19968.38;5099425;28;20238;-59
2022/02/16 08:17:42;;;;;;;0.93;0.80;;;6.40;99.90;;;7.28;100.00;-19974.69;5099715;28;20210;-59
2022/02/16 08:20:13;;;;;;;0.70;0.70;;;6.40;99.90;;;7.46;100.00;-19980.66;5106748;28;20561;-59
2022/02/16 08:22:47;;;;;;;0.80;0.80;;;6.50;99.90;;;7.51;100.00;-19982.38;5092043;28;20274;-58
2022/02/16 08:25:15;;;;;;;1.53;0.80;;;6.60;99.90;;;7.61;100.00;-19985.78;5103983;28;20673;-59
2022/02/16 08:27:45;;;;;;;1.33;0.93;;;6.70;99.90;;;7.64;100.00;-19986.81;5112362;28;20308;-52
2022/02/16 08:30:14;;;;;;;0.80;0.80;;;6.70;99.90;;;7.56;100.00;-19984.25;5113224;28;20300;-53
2022/02/16 08:32:42;;;;;;;1.80;0.80;;;6.70;99.90;;;7.64;100.00;-19987.00;5113432;28;20218;-54
2022/02/16 08:35:14;;;;;;;1.00;0.90;;;6.80;99.90;;;7.72;100.00;-19989.56;5112741;28;20219;-55
2022/02/16 08:37:42;;;;;;;1.23;1.13;;;6.80;99.90;;;7.72;100.00;-19989.56;5112731;28;20767;-55
2022/02/16 08:40:13;;;;;;;0.80;0.80;;;6.80;99.90;;;7.68;100.00;-19988.19;5111684;28;20309;-53
2022/02/16 08:42:42;;;;;;;0.90;0.90;;;6.80;99.90;;;7.66;100.00;-19987.66;5112578;28;20310;-57
2022/02/16 08:45:11;;;;;;;1.13;0.90;;;6.80;99.90;;;7.68;100.00;-19988.19;5112982;28;20575;-55
2022/02/16 08:47:40;;;;;;;1.00;0.90;;;6.80;99.90;;;7.90;100.00;-19995.88;5112826;28;20227;-55
2022/02/16 08:50:11;;;;;;;2.23;1.20;;;6.90;99.90;;;8.00;100.00;-19999.28;5111726;28;20238;-57
2022/02/16 08:52:40;;;;;;;1.43;1.10;;;7.00;99.90;;;7.88;100.00;-19995.03;5112258;28;20226;-58
2022/02/16 08:55:10;;;;;;;1.37;0.90;;;6.90;99.90;;;7.83;100.00;-19993.31;5112244;28;20242;-57
2022/02/16 08:57:39;;;;;;;1.30;0.97;;;7.00;99.90;;;7.97;100.00;-19998.09;5111610;28;20679;-58
2022/02/16 09:00:09;;;;;;;0.80;0.80;;;7.00;99.90;;;8.12;100.00;-20003.22;5112397;28;20243;-58
2022/02/16 09:02:38;;;;;;;0.80;0.70;;;7.10;99.90;;;7.91;100.00;-19996.03;5111986;28;20246;-55
2022/02/16 09:05:07;;;;;;;0.80;0.80;;;7.10;99.90;;;8.16;100.00;-20004.59;5096244;28;20314;-57
2022/02/16 09:07:36;;;;;;;1.40;1.00;;;7.10;99.90;;;8.24;100.00;-20007.31;5091449;28;20228;-56
2022/02/16 09:10:08;;;;;;;1.10;0.90;;;7.20;99.90;;;8.24;100.00;-20007.31;5098309;28;20227;-54
2022/02/16 09:12:39;;;;;;;1.13;1.03;;;7.20;99.90;;;8.70;100.00;-20023.03;5111474;28;20223;-59
2022/02/16 09:15:08;;;;;;;0.93;0.83;;;7.40;99.90;;;8.78;100.00;-20025.78;5112531;28;20301;-59
2022/02/16 09:17:36;;;;;;;0.80;0.80;;;7.50;99.90;;;8.55;100.00;-20017.91;5111482;28;20668;-59
2022/02/16 09:20:07;;;;;;;1.13;0.80;;;7.50;99.90;;;8.75;100.00;-20024.75;5112078;28;20221;-61
2022/02/16 09:22:38;;;;;;;1.27;0.90;;;7.60;99.90;;;8.79;100.00;-20026.13;5111540;28;20299;-61
2022/02/16 09:25:07;;;;;;;1.20;0.80;;;7.60;99.90;;;8.78;100.00;-20025.63;5111523;28;20250;-60
2022/02/16 09:27:36;;;;;;;1.30;0.90;;;7.70;99.90;;;8.81;100.00;-20026.81;5111564;28;20215;-60
2022/02/16 09:30:06;;;;;;;1.07;0.87;;;7.70;99.90;;;8.80;100.00;-20026.47;5112142;28;20255;-61
2022/02/16 09:32:36;;;;;;;1.10;0.90;;;7.80;99.90;;;8.68;100.00;-20022.19;5111491;28;20216;-59
2022/02/16 09:35:05;;;;;;;0.93;0.83;;;7.70;99.90;;;8.57;100.00;-20018.59;5111537;28;20245;-61
2022/02/16 09:37:34;;;;;;;1.20;0.80;;;7.60;99.90;;;8.60;100.00;-20019.81;5111066;28;20227;-57
2022/02/16 09:40:05;;;;;;;1.63;0.90;;;7.60;99.90;;;8.53;100.00;-20017.22;5110504;28;20231;-57
2022/02/16 09:42:34;;;;;;;0.97;0.90;;;7.50;99.90;;;8.58;100.00;-20018.94;5111172;28;20303;-56
2022/02/16 09:45:06;;;;;;;0.90;0.80;;;7.50;99.90;;;8.43;100.00;-20013.81;5111748;28;20291;-54
2022/02/16 09:47:35;;;;;;;0.90;0.90;;;7.50;99.90;;;8.52;100.00;-20016.91;5111245;28;20286;-53
2022/02/16 09:50:11;;;;;;;1.20;1.10;;;7.50;99.90;;;8.59;100.00;-20019.28;5111148;28;20227;-58
2022/02/16 09:52:39;;;;;;;0.90;0.90;;;7.50;99.90;;;8.69;100.00;-20022.72;5110946;28;20223;-57
2022/02/16 09:55:10;;;;;;;2.43;1.07;;;7.60;99.90;;;8.66;100.00;-20021.69;5111667;28;20227;-61
2022/02/16 09:57:38;;;;;;;1.33;1.07;;;7.60;99.90;;;8.82;100.00;-20026.97;5111389;28;20219;-59
2022/02/16 10:00:11;;;;;;;2.00;1.17;;;7.70;99.90;;;8.87;100.00;-20028.84;5091202;28;20200;-61
2022/02/16 10:02:42;;;;;;;1.10;1.00;;;7.70;99.90;;;8.87;100.00;-20028.84;5091062;28;20283;-60
2022/02/16 10:05:12;;;;;;;0.83;0.80;;;7.80;99.90;;;8.94;100.00;-20031.25;5090857;28;20310;-64
2022/02/16 10:07:43;;;;;;;1.07;0.97;;;7.80;99.90;;;8.95;100.00;-20031.59;5091027;28;20281;-59
2022/02/16 10:10:16;;;;;;;1.20;1.00;;;7.90;99.90;;;9.19;100.00;-20039.78;5090514;28;20739;-59
2022/02/16 10:12:47;;;;;;;1.17;0.90;;;8.00;99.90;;;9.22;100.00;-20040.63;5090615;28;20227;-62
2022/02/16 10:15:18;;;;;;;1.80;0.90;;;8.10;99.90;;;9.05;100.00;-20034.84;5090485;28;20553;-63
2022/02/16 10:17:47;;;;;;;1.23;0.80;;;8.10;99.90;;;9.27;100.00;-20042.53;5091079;28;20184;-56
2022/02/16 10:20:20;;;;;;;0.80;0.80;;;8.20;99.90;;;9.25;100.00;-20041.84;5094068;28;20265;-56
2022/02/16 10:22:55;;;;;;;1.53;0.70;;;8.20;99.90;;;9.41;100.00;-20047.31;5110820;28;20223;-57
2022/02/16 10:25:28;;;;;;;1.13;0.87;;;8.30;99.90;;;9.58;100.00;-20052.94;5110666;28;20759;-60
2022/02/16 10:28:13;;;;;;;1.23;0.77;;;8.40;99.90;;;9.80;100.00;-20060.63;5110729;28;20229;-55